createdAt,value
2023-08-22T00:05:12.856Z,19.20
2023-08-22T00:11:14.910Z,19.00
2023-08-22T00:17:17.060Z,19.10
2023-08-22T00:23:19.888Z,19.00
2023-08-22T00:29:21.998Z,19.00
2023-08-22T00:35:26.121Z,19.20
2023-08-22T00:41:28.217Z,19.30
2023-08-22T00:47:30.336Z,19.20
2023-08-22T00:53:34.077Z,19.00
2023-08-22T00:59:36.282Z,19.00
2023-08-22T01:05:44.295Z,18.90
2023-08-22T01:11:50.520Z,19.00
2023-08-22T01:18:02.561Z,19.00
2023-08-22T01:24:05.422Z,19.00
2023-08-22T01:30:29.039Z,18.80
2023-08-22T01:36:31.342Z,18.70
2023-08-22T01:42:33.379Z,18.70
2023-08-22T01:48:35.702Z,18.50
2023-08-22T01:54:42.301Z,18.30
2023-08-22T02:00:44.332Z,18.30
2023-08-22T02:06:47.669Z,18.30
2023-08-22T02:12:49.682Z,18.30
2023-08-22T02:18:51.724Z,18.20
2023-08-22T02:24:53.740Z,18.10
2023-08-22T02:30:58.944Z,17.80
2023-08-22T02:37:00.985Z,17.90
2023-08-22T02:43:03.655Z,17.80
2023-08-22T02:49:05.697Z,17.90
2023-08-22T02:55:08.419Z,17.90
2023-08-22T03:01:10.866Z,17.90
2023-08-22T03:07:12.988Z,17.80
2023-08-22T03:13:15.010Z,17.60
2023-08-22T03:19:17.069Z,17.50
2023-08-22T03:25:19.189Z,17.50
2023-08-22T03:31:23.360Z,17.50
2023-08-22T03:37:25.405Z,17.50
2023-08-22T03:43:27.427Z,17.50
2023-08-22T03:49:29.477Z,17.50
2023-08-22T03:55:31.527Z,17.50
2023-08-22T04:01:33.518Z,17.50
2023-08-22T04:07:35.490Z,17.50
2023-08-22T04:13:37.606Z,17.50
2023-08-22T04:19:39.779Z,17.70
2023-08-22T04:25:41.729Z,17.70
2023-08-22T04:31:44.639Z,17.70
2023-08-22T04:37:46.759Z,17.70
2023-08-22T04:43:48.749Z,17.90
2023-08-22T04:49:50.743Z,18.00
2023-08-22T04:55:53.299Z,18.00
2023-08-22T05:01:55.397Z,18.10
2023-08-22T05:07:57.440Z,18.20
2023-08-22T05:13:59.394Z,18.20
2023-08-22T05:20:01.353Z,18.40
2023-08-22T05:26:04.113Z,18.50
2023-08-22T05:32:06.524Z,18.60
2023-08-22T05:38:08.489Z,18.70
2023-08-22T05:44:10.444Z,18.90
2023-08-22T05:50:12.679Z,19.00
2023-08-22T05:56:14.612Z,19.10
2023-08-22T06:02:16.901Z,19.40
2023-08-22T06:08:19.772Z,19.80
2023-08-22T06:14:21.809Z,20.10
2023-08-22T06:20:23.876Z,20.30
2023-08-22T06:26:25.853Z,20.50
2023-08-22T06:32:27.894Z,20.70
2023-08-22T06:38:29.848Z,20.90
2023-08-22T06:44:31.825Z,21.00
2023-08-22T06:50:33.796Z,20.90
2023-08-22T06:56:35.780Z,20.90
2023-08-22T07:02:37.772Z,21.20
2023-08-22T07:08:39.780Z,21.50
2023-08-22T07:14:43.350Z,21.40
2023-08-22T07:20:46.578Z,21.40
2023-08-22T07:26:48.590Z,21.50
2023-08-22T07:32:50.562Z,21.70
2023-08-22T07:38:52.632Z,22.00
2023-08-22T07:44:54.583Z,22.20
2023-08-22T07:50:59.137Z,22.30
2023-08-22T07:57:16.542Z,22.50
2023-08-22T08:03:20.815Z,22.60
2023-08-22T08:09:34.428Z,22.80
2023-08-22T08:15:37.672Z,22.90
2023-08-22T08:21:39.644Z,23.10
2023-08-22T08:27:41.612Z,24.10
2023-08-22T08:33:43.560Z,24.70
2023-08-22T08:39:45.547Z,24.90
2023-08-22T08:45:49.150Z,25.00
2023-08-22T08:51:51.757Z,25.50
2023-08-22T08:57:53.970Z,26.50
2023-08-22T09:03:55.952Z,26.50
2023-08-22T09:09:59.637Z,25.80
2023-08-22T09:16:02.323Z,25.80
2023-08-22T09:22:05.301Z,25.90
2023-08-22T09:28:11.736Z,26.20
2023-08-22T09:34:15.818Z,26.00
2023-08-22T09:40:20.241Z,25.50
2023-08-22T09:46:22.843Z,26.40
2023-08-22T09:52:26.617Z,27.30
2023-08-22T09:58:30.530Z,27.80
2023-08-22T10:04:33.379Z,28.00
2023-08-22T10:10:36.636Z,29.10
2023-08-22T10:16:39.665Z,29.00
2023-08-22T10:22:41.682Z,28.60
2023-08-22T10:28:44.425Z,28.70
2023-08-22T10:34:46.249Z,29.10
2023-08-22T10:40:55.761Z,29.60
2023-08-22T10:47:05.334Z,29.20
2023-08-22T10:53:23.259Z,30.20
2023-08-22T10:59:25.337Z,30.50
2023-08-22T11:05:31.468Z,30.70
2023-08-22T11:11:36.488Z,30.70
2023-08-22T11:17:41.268Z,31.80
2023-08-22T11:23:44.094Z,32.30
2023-08-22T11:29:53.538Z,31.50
2023-08-22T11:35:56.550Z,31.20
2023-08-22T11:41:58.583Z,31.80
2023-08-22T11:48:02.544Z,31.60
2023-08-22T11:54:04.643Z,31.60
2023-08-22T12:00:10.326Z,30.50
2023-08-22T12:06:14.304Z,30.80
2023-08-22T12:12:16.521Z,31.30
2023-08-22T12:18:19.131Z,32.00
2023-08-22T12:24:21.128Z,33.20
2023-08-22T12:30:23.200Z,32.60
2023-08-22T12:36:25.226Z,31.60
2023-08-22T12:42:27.294Z,32.60
2023-08-22T12:48:29.501Z,33.70
2023-08-22T12:54:31.486Z,34.50
2023-08-22T13:00:33.518Z,34.00
2023-08-22T13:06:37.649Z,34.40
2023-08-22T13:12:41.679Z,32.90
2023-08-22T13:18:43.659Z,32.30
2023-08-22T13:24:45.608Z,31.10
2023-08-22T13:30:47.595Z,30.80
2023-08-22T13:36:49.546Z,30.90
2023-08-22T13:42:51.601Z,31.10
2023-08-22T13:48:53.589Z,31.10
2023-08-22T13:54:55.611Z,30.60
2023-08-22T14:00:57.638Z,30.60
2023-08-22T14:06:59.703Z,30.70
2023-08-22T14:13:02.400Z,29.70
2023-08-22T14:19:04.329Z,29.20
2023-08-22T14:25:06.633Z,28.80
2023-08-22T14:31:08.618Z,28.50
2023-08-22T14:37:22.225Z,28.00
2023-08-22T14:43:28.017Z,27.80
2023-08-22T14:49:30.207Z,27.50
2023-08-22T14:55:32.155Z,27.70
2023-08-22T15:01:34.437Z,28.00
2023-08-22T15:07:36.668Z,27.60
2023-08-22T15:13:38.659Z,27.50
2023-08-22T15:19:40.604Z,27.40
2023-08-22T15:25:42.586Z,27.40
2023-08-22T15:31:45.028Z,27.20
2023-08-22T15:37:47.564Z,26.90
2023-08-22T15:43:50.188Z,26.70
2023-08-22T15:49:52.188Z,26.50
2023-08-22T15:55:54.258Z,26.50
2023-08-22T16:01:56.227Z,26.40
2023-08-22T16:07:58.159Z,26.50
2023-08-22T16:14:01.265Z,26.30
2023-08-22T16:20:03.485Z,26.00
2023-08-22T16:26:06.504Z,25.80
2023-08-22T16:32:10.557Z,25.90
2023-08-22T16:38:12.706Z,25.90
2023-08-22T16:44:14.851Z,25.80
2023-08-22T16:50:16.982Z,25.60
2023-08-22T16:56:18.991Z,25.60
2023-08-22T17:02:21.025Z,25.60
2023-08-22T17:08:23.165Z,25.30
2023-08-22T17:14:25.173Z,25.00
2023-08-22T17:20:27.233Z,24.70
2023-08-22T17:26:29.198Z,24.60
2023-08-22T17:32:31.165Z,24.50
2023-08-22T17:38:33.333Z,24.20
2023-08-22T17:44:35.424Z,24.10
2023-08-22T17:50:37.433Z,23.90
2023-08-22T17:56:39.431Z,23.70
2023-08-22T18:02:41.446Z,23.30
2023-08-22T18:08:43.675Z,23.10
2023-08-22T18:14:45.654Z,23.00
2023-08-22T18:20:47.599Z,22.80
2023-08-22T18:26:50.240Z,22.50
2023-08-22T18:32:52.277Z,22.20
2023-08-22T18:38:55.073Z,22.00
2023-08-22T18:44:57.080Z,21.70
2023-08-22T18:51:01.025Z,21.50
2023-08-22T18:57:03.150Z,21.20
2023-08-22T19:03:05.865Z,21.10
2023-08-22T19:09:09.379Z,21.00
2023-08-22T19:15:11.374Z,21.00
2023-08-22T19:21:13.454Z,21.00
2023-08-22T19:27:15.727Z,21.10
2023-08-22T19:33:19.518Z,21.00
2023-08-22T19:39:22.722Z,21.00
2023-08-22T19:45:24.701Z,20.90
2023-08-22T19:51:27.548Z,20.90
2023-08-22T19:57:29.809Z,20.90
2023-08-22T20:03:31.795Z,20.80
2023-08-22T20:09:33.873Z,20.70
2023-08-22T20:15:35.867Z,20.60
2023-08-22T20:21:37.824Z,20.50
2023-08-22T20:27:39.762Z,20.50
2023-08-22T20:33:41.735Z,20.30
2023-08-22T20:39:43.693Z,20.30
2023-08-22T20:45:45.690Z,20.20
2023-08-22T20:51:47.637Z,20.20
2023-08-22T20:57:49.680Z,19.90
2023-08-22T21:03:51.917Z,19.80
2023-08-22T21:09:53.955Z,19.80
2023-08-22T21:15:55.901Z,19.70
2023-08-22T21:21:57.859Z,19.70
2023-08-22T21:27:59.908Z,19.50
2023-08-22T21:34:03.035Z,19.40
2023-08-22T21:40:05.892Z,19.30
2023-08-22T21:46:09.074Z,19.20
2023-08-22T21:52:12.757Z,19.10
2023-08-22T21:58:14.763Z,18.90
2023-08-22T22:04:16.715Z,18.70
2023-08-22T22:10:19.218Z,18.60
2023-08-22T22:16:30.977Z,18.50
2023-08-22T22:22:36.595Z,18.50
2023-08-22T22:28:41.229Z,18.50
2023-08-22T22:34:43.246Z,18.40
2023-08-22T22:40:47.312Z,18.40
2023-08-22T22:46:49.372Z,18.20
2023-08-22T22:52:51.414Z,18.10
2023-08-22T22:58:53.370Z,17.90
2023-08-22T23:04:55.323Z,17.80
2023-08-22T23:10:57.230Z,17.70
2023-08-22T23:16:59.545Z,17.60
2023-08-22T23:23:01.567Z,17.40
2023-08-22T23:29:03.533Z,17.30
2023-08-22T23:35:08.733Z,17.10
2023-08-22T23:41:10.747Z,17.10
2023-08-22T23:47:13.565Z,17.00
2023-08-22T23:53:15.503Z,17.00
2023-08-22T23:59:17.438Z,16.90
